Terminal Aerodrome Forecast
Issued by NWS

Home | Current Version | Previous Version | Text Only | Print | Product List | Glossary On
Versions: 1 2 3 4 5 6 7 8 9 10 11 12 13 14 15 16 17 18 19 20 21 22 23 24 25 26 27 28 29 30 31 32 33 34
258
FTAK31 PANC 240303 AAA
TAFAIL
TAF AMD
PAIL 240303Z 2403/2424 15012KT P6SM BKN250 WS020/16035KT
     FM240800 12008G15KT 4SM -RA BKN025 OVC050
     FM241100 14008KT 2SM -RASN BKN015 OVC030
     FM241800 22005KT 4SM -SHSN BKN015 OVC025
     FM242100 VRB04KT P6SM BKN025 OVC080=

USA.gov is the U.S. government's official web portal to all federal, state and local government web resources and services.